• Join FlightAware (Why Join?)
  • Login
  • US Flag 
11:28PM EDT


 

Airport Tracker/Info


-or-


 

Live Flight TrackerFlight Track Log ✈ N125GH ✈ 27-Jun-2013 ✈ KHOU - KHOT

Flight Track Log - Related Links

Times and Time Zones

All times are in EDT time to prevent confusion due to time zone crossing. See the N125GH flight status page for this flight to view local times or setup timezone preferences in your user account.

Time Position Orientation Groundspeed Altitude Reporting Facility
EDT Latitude Longitude Course Direction KTS MPH feet Rate Location/Type
02:45PM 29.6353 -95.2892 23° Northeast 167 192 900  Level Houston Center
02:46PM 29.6044 -95.2711 153° Southeast 220 253 3,200 2,700 Climbing Houston Center
02:47PM 29.6322 -95.2275 54° Northeast 266 306 5,000 1,800 Climbing Houston Center
02:48PM 29.7039 -95.2478 346° North 263 303 6,600 2,400 Climbing Houston Center
02:49PM 29.7733 -95.2864 334° Northwest 275 316 10,000 2,400 Climbing Houston Center
02:50PM 29.8603 -95.2986 353° North 328 377 11,700 2,160 Climbing Houston Center
02:51PM 30.2397 -95.2218 23° Northeast  Level FlightAware Approximate
02:51PM 29.9575 -95.2758 11° North 349 402 14,500  Level Houston Center
02:52PM 30.0619 -95.2522 11° North 372 428 17,100 2,700 Climbing Houston Center
02:53PM 30.1906 -95.2239 11° North 387 445 20,200 2,460 Climbing Houston Center
02:54PM 30.3019 -95.1983 11° North 401 461 22,300 1,980 Climbing Houston Center
02:55PM 30.4153 -95.1714 12° North 411 473 24,300 1,860 Climbing Houston Center
02:56PM 30.5181 -95.1203 23° Northeast 415 478 26,200 2,040 Climbing Houston Center
02:57PM 30.6464 -95.0400 28° Northeast 433 498 28,600 2,040 Climbing Houston Center
02:58PM 30.7572 -94.9706 28° Northeast 445 512 30,500 1,740 Climbing Houston Center
02:59PM 30.8692 -94.8997 29° Northeast 448 516 32,200 1,620 Climbing Houston Center
03:00PM 30.9847 -94.8294 28° Northeast 472 543 33,900 1,620 Climbing Houston Center
03:01PM 31.0947 -94.7572 29° Northeast 451 519 35,600 1,620 Climbing Houston Center
03:02PM 31.2258 -94.6853 25° Northeast 464 534 37,300 1,560 Climbing Houston Center
03:03PM 31.3494 -94.6283 21° North 457 526 38,900 780 Climbing Houston Center
03:04PM 31.4694 -94.5722 22° Northeast 467 537 39,000  Climbing Houston Center
03:05PM 31.5864 -94.5172 22° Northeast 459 528 39,000  Level Houston Center
03:06PM 31.7283 -94.4506 22° Northeast 458 527 39,000  Level Houston Center
03:07PM 31.8453 -94.3939 22° Northeast 454 522 39,000  Level Houston Center
03:08PM 31.9647 -94.3381 22° Northeast 459 528 39,000  Level Houston Center
03:09PM 32.0833 -94.2814 22° Northeast 460 529 39,000  Level Houston Center
03:10PM 32.2008 -94.2247 22° Northeast 458 527 39,000  Level Houston Center
03:11PM 32.3183 -94.1664 23° Northeast 457 526 39,000  Level Houston Center
03:13PM 32.4806 -94.0839 23° Northeast 447 514 39,000  Level Fort Worth Center
03:14PM 32.5981 -94.0303 21° North 447 514 39,000  Level Fort Worth Center
03:15PM 32.7153 -93.9717 23° Northeast 452 520 39,000  Level Fort Worth Center
03:16PM 32.8328 -93.9150 22° Northeast 452 520 39,000 -60 Level Fort Worth Center
03:17PM 32.9500 -93.8561 23° Northeast 452 520 38,900 -720 Descending Fort Worth Center
03:18PM 33.0653 -93.7944 24° Northeast 452 520 37,600 -1,740 Descending Fort Worth Center
03:19PM 33.1844 -93.7350 23° Northeast 452 520 35,500 -2,520 Descending Fort Worth Center
03:20PM 33.3039 -93.6728 24° Northeast 452 520 32,600 -3,180 Descending Fort Worth Center
03:21PM 33.4375 -93.6125 21° North 458 527 29,200 -3,420 Descending Fort Worth Center
03:22PM 33.5508 -93.5603 21° North 452 520 25,800 -3,540 Descending Fort Worth Center
03:23PM 33.6597 -93.5056 23° Northeast 438 504 22,200 -3,360 Descending Fort Worth Center
03:24PM 33.7650 -93.4556 22° Northeast 413 475 18,800 -3,300 Descending Memphis Center
03:25PM 33.8622 -93.4089 22° Northeast 397 457 15,300 -2,640 Descending Memphis Center
03:26PM 33.9550 -93.3622 23° Northeast 376 433 13,600 -1,680 Descending Memphis Center
03:27PM 34.0353 -93.3200 24° Northeast 341 392 12,000 -1,500 Descending Memphis Center
03:28PM 34.1072 -93.2847 22° Northeast 304 350 10,600 -1,440 Descending Memphis Center
03:29PM 34.1789 -93.2519 21° North 281 323 9,200 -1,440 Descending Memphis Center
03:30PM 34.2467 -93.2117 26° Northeast 268 308 7,800 -1,560 Descending Memphis Center
03:31PM 34.3161 -93.1861 17° North 258 297 6,100 -1,740 Descending Memphis Center